This is the latest recevied weather packets stored in our database for station/object SALT. If no packets are shown the sender has not sent any weather packets the latest 10 day(s).
| Time | Temp. | Humidity | Pressure | Rain* | Wind** | Luminosity | Snow |
|---|---|---|---|---|---|---|---|
| 1777551929 | 1.67° C | 69% | 1028.6 hPa | 0 mm | - | - | - |
| 1777551326 | 2.22° C | 67% | 1028.6 hPa | 0 mm | - | - | - |
| 1777550722 | 2.78° C | 69% | 1028.6 hPa | 0 mm | - | - | - |
| 1777550119 | 2.22° C | 70% | 1028.7 hPa | 0 mm | - | - | - |
| 1777549517 | 2.22° C | 70% | 1028.8 hPa | 0 mm | - | - | - |
| 1777548914 | 1.67° C | 74% | 1028.8 hPa | 0 mm | - | - | - |
| 1777548312 | 1.67° C | 74% | 1028.9 hPa | 0 mm | - | - | - |
| 1777547708 | 1.11° C | 76% | 1029 hPa | 0 mm | - | - | - |
| 1777547104 | 1.11° C | 75% | 1029.1 hPa | 0 mm | - | - | - |
| 1777546501 | 1.67° C | 73% | 1029 hPa | 0 mm | - | - | - |
| 1777545899 | 1.11° C | 76% | 1029 hPa | 0 mm | - | - | - |
| 1777545296 | 0.56° C | 76% | 1028.9 hPa | 0 mm | - | - | - |
| 1777544696 | 1.11° C | 74% | 1028.8 hPa | 0 mm | - | - | - |
| 1777544091 | 1.67° C | 72% | 1028.8 hPa | 0 mm | - | - | - |
| 1777543486 | 2.22° C | 70% | 1028.8 hPa | 0 mm | - | - | - |
| 1777542884 | 2.22° C | 71% | 1028.9 hPa | 0 mm | - | - | - |
| 1777542281 | 2.22° C | 70% | 1029 hPa | 0 mm | - | - | - |
| 1777541678 | 2.78° C | 69% | 1029 hPa | 0 mm | - | - | - |
| 1777541075 | 2.78° C | 68% | 1029.1 hPa | 0 mm | - | - | - |
| 1777540471 | 2.22° C | 68% | 1029.2 hPa | 0 mm | - | - | - |
| 1777539868 | 2.22° C | 69% | 1029.3 hPa | 0 mm | - | - | - |
| 1777539265 | 2.22° C | 69% | 1029.3 hPa | 0 mm | - | - | - |
| 1777538662 | 2.22° C | 68% | 1029.3 hPa | 0 mm | - | - | - |
| 1777538060 | 2.22° C | 69% | 1029.4 hPa | 0 mm | - | - | - |
| 1777537457 | 2.78° C | 68% | 1029.4 hPa | 0 mm | - | - | - |
* Rain latest 24 hours (hover to see other rain measurements)
** Current wind speed in m/s (hover to see current wind gust speed)